Time;durP1;ratioP1;P1;durP2;ratioP2;P2;SDS_P1;SDS_P2;PMS_P1;PMS_P2;Temp;Humidity;BMP_temperature;BMP_pressure;BME280_temperature;BME280_humidity;BME280_pressure;Samples;Min_cycle;Max_cycle;Signal;HPM_P1;HPM_P2
2023/04/25 00:01:04;;;;;;;16.77;4.17;;;7.20;99.90;;;;;;5027071;28;20426;-78
2023/04/25 00:03:31;;;;;;;16.92;3.97;;;7.30;99.90;;;;;;5028038;28;20435;-78
2023/04/25 00:06:03;;;;;;;20.67;4.82;;;7.30;99.90;;;;;;5029243;28;21044;-78
2023/04/25 00:08:30;;;;;;;23.33;4.70;;;7.20;99.90;;;;;;5026298;28;20434;-79
2023/04/25 00:10:56;;;;;;;15.07;3.63;;;7.20;99.90;;;;;;5027438;28;20407;-78
2023/04/25 00:13:23;;;;;;;17.10;4.70;;;7.20;99.90;;;;;;5028407;28;20422;-80
2023/04/25 00:15:48;;;;;;;20.97;4.73;;;7.10;99.90;;;;;;5022763;28;20424;-79
2023/04/25 00:18:15;;;;;;;19.47;5.23;;;7.20;99.90;;;;;;5009954;28;20520;-79
2023/04/25 00:20:46;;;;;;;20.88;5.70;;;7.00;99.90;;;;;;5043029;28;21122;-79
2023/04/25 00:23:21;;;;;;;13.65;3.83;;;7.00;99.90;;;;;;5034120;28;20922;-79
2023/04/25 00:25:49;;;;;;;22.10;5.13;;;6.90;99.90;;;;;;5007662;28;20496;-79
2023/04/25 00:28:15;;;;;;;18.75;4.32;;;6.80;99.90;;;;;;5030217;28;20426;-78
2023/04/25 00:30:41;;;;;;;18.15;4.43;;;6.80;99.90;;;;;;5021667;28;20414;-78
2023/04/25 00:33:07;;;;;;;14.75;4.45;;;6.70;99.90;;;;;;5018267;28;20488;-78
2023/04/25 00:35:33;;;;;;;17.25;5.00;;;6.70;99.90;;;;;;5024157;28;20528;-78
2023/04/25 00:37:59;;;;;;;15.47;4.33;;;6.60;99.90;;;;;;5035175;28;20779;-78
2023/04/25 00:40:25;;;;;;;19.23;3.93;;;6.50;99.90;;;;;;5028421;28;20418;-78
2023/04/25 00:42:52;;;;;;;14.75;4.93;;;6.60;99.90;;;;;;5027739;28;20407;-78
2023/04/25 00:45:18;;;;;;;16.10;4.53;;;6.60;99.90;;;;;;5028802;28;20434;-78
2023/04/25 00:47:45;;;;;;;18.92;4.85;;;6.50;99.90;;;;;;5036393;28;20425;-77
2023/04/25 00:50:11;;;;;;;22.10;5.23;;;6.70;99.90;;;;;;5035849;28;20427;-79
2023/04/25 00:52:40;;;;;;;16.07;3.87;;;6.50;99.90;;;;;;5013684;28;20456;-78
2023/04/25 00:55:07;;;;;;;18.70;4.63;;;6.70;99.90;;;;;;5026168;28;20419;-79
2023/04/25 00:57:33;;;;;;;16.35;4.07;;;6.70;99.90;;;;;;5026023;28;20422;-78
2023/04/25 00:59:59;;;;;;;17.67;3.90;;;6.60;99.90;;;;;;5026192;28;20441;-78
2023/04/25 01:02:26;;;;;;;20.02;5.60;;;6.70;99.90;;;;;;5027431;28;20426;-78
2023/04/25 01:04:53;;;;;;;16.58;3.95;;;6.60;99.90;;;;;;5028800;28;20420;-78
2023/04/25 01:07:18;;;;;;;20.15;4.55;;;6.60;99.90;;;;;;5109923;22;20479;-78
2023/04/25 01:09:46;;;;;;;17.50;5.07;;;6.70;99.90;;;;;;5007073;28;20453;-78
2023/04/25 01:12:12;;;;;;;18.92;4.45;;;6.80;99.90;;;;;;5004404;28;20448;-78
2023/04/25 01:14:38;;;;;;;20.83;4.20;;;6.80;99.90;;;;;;5009481;28;20419;-79
2023/04/25 01:17:04;;;;;;;22.42;4.13;;;6.80;99.90;;;;;;4995026;28;20462;-78
2023/04/25 01:19:30;;;;;;;23.00;5.95;;;6.80;99.90;;;;;;4989468;28;20946;-78
2023/04/25 01:21:56;;;;;;;18.98;4.95;;;6.90;99.90;;;;;;5007027;28;20460;-77
2023/04/25 01:24:22;;;;;;;18.38;4.80;;;6.80;99.90;;;;;;5004414;28;20461;-78
2023/04/25 01:26:52;;;;;;;12.50;3.72;;;6.70;99.90;;;;;;5006734;28;20425;-78
2023/04/25 01:29:19;;;;;;;15.52;3.95;;;6.80;99.90;;;;;;5006693;28;20512;-78
2023/04/25 01:31:45;;;;;;;20.83;4.57;;;6.80;99.90;;;;;;5006726;28;20437;-78
2023/04/25 01:34:11;;;;;;;19.55;3.65;;;6.80;99.90;;;;;;5004495;28;20502;-77
2023/04/25 01:36:37;;;;;;;23.80;5.75;;;6.70;99.90;;;;;;5007003;28;20421;-77
2023/04/25 01:39:03;;;;;;;17.83;4.05;;;6.70;99.90;;;;;;5010259;28;20419;-78
2023/04/25 01:41:29;;;;;;;18.83;5.45;;;6.50;99.90;;;;;;5010144;28;20423;-78
2023/04/25 01:43:55;;;;;;;20.60;4.88;;;6.60;99.90;;;;;;4998202;28;20438;-78
2023/04/25 01:46:20;;;;;;;18.40;4.20;;;6.50;99.90;;;;;;5007203;28;20432;-78
2023/04/25 01:48:46;;;;;;;15.57;3.97;;;6.50;99.90;;;;;;5012019;28;20410;-78
2023/04/25 01:51:13;;;;;;;13.65;3.55;;;6.60;99.90;;;;;;5001067;28;20434;-78
2023/04/25 01:53:39;;;;;;;16.45;4.95;;;6.60;99.90;;;;;;4992969;28;20426;-77
2023/04/25 01:56:05;;;;;;;17.63;3.65;;;6.70;99.90;;;;;;5009789;28;20503;-78
2023/04/25 01:58:30;;;;;;;16.55;3.35;;;6.70;99.90;;;;;;5011556;28;20439;-78
2023/04/25 02:00:56;;;;;;;15.40;3.67;;;6.60;99.90;;;;;;5013400;28;20420;-79
2023/04/25 02:03:22;;;;;;;16.90;4.30;;;6.60;99.90;;;;;;5011294;28;20413;-78
2023/04/25 02:05:48;;;;;;;16.00;3.45;;;6.70;99.90;;;;;;5019270;28;20422;-78
2023/04/25 02:08:14;;;;;;;11.93;2.25;;;6.60;99.90;;;;;;5026287;28;20432;-77
2023/04/25 02:10:39;;;;;;;14.13;3.35;;;6.50;99.90;;;;;;5012066;28;20425;-79
2023/04/25 02:13:05;;;;;;;10.27;2.67;;;6.50;99.90;;;;;;4998606;28;20441;-78
2023/04/25 02:15:31;;;;;;;9.23;2.33;;;6.60;99.90;;;;;;4999189;28;20412;-79
2023/04/25 02:17:57;;;;;;;10.97;2.63;;;6.60;99.90;;;;;;5011216;28;20414;-79
2023/04/25 02:20:24;;;;;;;11.80;2.97;;;6.60;99.90;;;;;;5003455;28;20926;-78
2023/04/25 02:22:51;;;;;;;16.58;3.78;;;6.40;99.90;;;;;;5001336;28;20498;-79
2023/04/25 02:25:19;;;;;;;11.80;3.72;;;6.50;99.90;;;;;;5010762;28;20484;-77
2023/04/25 02:27:45;;;;;;;9.30;2.60;;;6.50;99.90;;;;;;5011958;28;20495;-77
2023/04/25 02:30:11;;;;;;;10.85;2.63;;;6.50;99.90;;;;;;5021012;28;20425;-78
2023/04/25 02:32:38;;;;;;;15.57;3.30;;;6.50;99.90;;;;;;5010520;28;20796;-78
2023/04/25 02:35:04;;;;;;;11.70;3.13;;;6.50;99.90;;;;;;4998335;28;20419;-79
2023/04/25 02:37:31;;;;;;;15.00;3.15;;;6.50;99.90;;;;;;5009130;28;20440;-78
2023/04/25 02:39:57;;;;;;;21.42;4.10;;;6.50;99.90;;;;;;5025541;28;20466;-79
2023/04/25 02:42:22;;;;;;;16.80;3.35;;;6.10;99.90;;;;;;5007672;28;21008;-79
2023/04/25 02:44:48;;;;;;;12.27;3.30;;;5.90;99.90;;;;;;4992736;28;20420;-78
2023/04/25 02:47:14;;;;;;;11.43;2.67;;;5.50;99.90;;;;;;5008914;28;20425;-78
2023/04/25 02:49:40;;;;;;;8.20;2.42;;;5.20;99.90;;;;;;5010174;28;20777;-77
2023/04/25 02:52:06;;;;;;;8.13;2.30;;;5.10;99.90;;;;;;5007913;28;20428;-78
2023/04/25 02:54:31;;;;;;;7.73;2.23;;;5.10;99.90;;;;;;5009780;28;20427;-79
2023/04/25 02:56:57;;;;;;;12.30;2.60;;;5.30;99.90;;;;;;5008963;28;20430;-79
2023/04/25 02:59:23;;;;;;;14.37;3.00;;;5.20;99.90;;;;;;5010429;28;20500;-78
2023/04/25 03:01:48;;;;;;;8.80;2.83;;;5.20;99.90;;;;;;5007923;28;20508;-79
2023/04/25 03:04:14;;;;;;;14.03;2.17;;;5.20;99.90;;;;;;5010738;28;20471;-79
2023/04/25 03:06:40;;;;;;;9.27;1.73;;;5.20;99.90;;;;;;5022238;28;20427;-78
2023/04/25 03:09:06;;;;;;;4.82;1.10;;;5.20;99.90;;;;;;5009816;28;20421;-78
2023/04/25 03:11:32;;;;;;;11.25;1.92;;;5.30;99.90;;;;;;5007789;28;20512;-79
2023/04/25 03:13:57;;;;;;;9.73;2.25;;;5.40;99.90;;;;;;5009399;28;20432;-78
2023/04/25 03:16:23;;;;;;;7.50;1.60;;;5.40;99.90;;;;;;5009494;28;20436;-78
2023/04/25 03:18:50;;;;;;;9.88;2.08;;;5.50;99.90;;;;;;5023176;28;20802;-78
2023/04/25 03:21:16;;;;;;;5.60;1.27;;;5.40;99.90;;;;;;5005170;28;20431;-78
2023/04/25 03:23:42;;;;;;;7.43;1.67;;;5.50;99.90;;;;;;5012139;28;20867;-78
2023/04/25 03:26:08;;;;;;;8.25;2.20;;;5.60;99.90;;;;;;5009905;28;20765;-79
2023/04/25 03:28:33;;;;;;;7.50;1.73;;;5.50;99.90;;;;;;5006509;28;20938;-78
2023/04/25 03:30:59;;;;;;;7.95;1.92;;;5.60;99.90;;;;;;5000496;28;20421;-79
2023/04/25 03:33:24;;;;;;;9.57;1.85;;;5.60;99.90;;;;;;4993885;28;20435;-78
2023/04/25 03:35:51;;;;;;;11.48;1.90;;;5.70;99.90;;;;;;4991372;28;20767;-78
2023/04/25 03:38:17;;;;;;;11.82;3.08;;;5.60;99.90;;;;;;5005295;28;20932;-78
2023/04/25 03:40:43;;;;;;;8.20;2.03;;;5.40;99.90;;;;;;5008583;28;20432;-79
2023/04/25 03:43:08;;;;;;;10.32;2.63;;;5.40;99.90;;;;;;5008144;28;20512;-78
2023/04/25 03:45:34;;;;;;;10.45;2.85;;;5.50;99.90;;;;;;5008750;28;20413;-79
2023/04/25 03:48:00;;;;;;;12.38;2.75;;;5.40;99.90;;;;;;5008336;28;20428;-79
2023/04/25 03:50:25;;;;;;;11.13;2.47;;;5.40;99.90;;;;;;5025854;28;20558;-78
2023/04/25 03:52:51;;;;;;;9.47;2.40;;;5.30;99.90;;;;;;5008420;28;20505;-78
2023/04/25 03:55:17;;;;;;;11.73;2.35;;;5.40;99.90;;;;;;5007295;28;20977;-79
2023/04/25 03:57:43;;;;;;;9.05;2.35;;;5.40;99.90;;;;;;4999456;28;20834;-77
2023/04/25 04:00:09;;;;;;;7.72;2.70;;;5.40;99.90;;;;;;5006562;28;20503;-78
2023/04/25 04:02:37;;;;;;;14.50;3.10;;;5.50;99.90;;;;;;5007987;28;20475;-78
2023/04/25 04:05:03;;;;;;;12.65;4.28;;;5.40;99.90;;;;;;5006244;28;20412;-79
2023/04/25 04:07:29;;;;;;;11.82;2.28;;;5.40;99.90;;;;;;5006587;28;20520;-79
2023/04/25 04:09:55;;;;;;;14.65;3.20;;;5.30;99.90;;;;;;5008798;28;20855;-78
2023/04/25 04:12:20;;;;;;;13.32;2.70;;;5.40;99.90;;;;;;5008824;28;20429;-78
2023/04/25 04:14:46;;;;;;;14.05;2.67;;;5.40;99.90;;;;;;5028596;28;20395;-79
2023/04/25 04:17:11;;;;;;;11.98;2.80;;;5.40;99.90;;;;;;5015723;28;20425;-78
2023/04/25 04:19:37;;;;;;;11.07;3.20;;;5.40;99.90;;;;;;5006774;28;20428;-78
2023/04/25 04:22:03;;;;;;;11.68;2.67;;;5.30;99.90;;;;;;5007585;28;20480;-78
2023/04/25 04:24:28;;;;;;;9.85;2.85;;;5.30;99.90;;;;;;5012690;28;20423;-79
2023/04/25 04:26:54;;;;;;;13.20;2.70;;;5.30;99.90;;;;;;5006306;28;20908;-78
2023/04/25 04:29:20;;;;;;;9.68;2.78;;;5.30;99.90;;;;;;5007499;28;20442;-77
2023/04/25 04:31:50;;;;;;;13.15;2.75;;;5.30;99.90;;;;;;5005913;28;20437;-77
2023/04/25 04:34:17;;;;;;;11.77;2.60;;;5.30;99.90;;;;;;5009494;28;20421;-78
2023/04/25 04:36:46;;;;;;;15.60;3.22;;;5.30;99.90;;;;;;5003188;28;20430;-78
2023/04/25 04:39:13;;;;;;;13.27;3.17;;;5.40;99.90;;;;;;5001638;28;20459;-78
2023/04/25 04:41:39;;;;;;;13.23;2.72;;;5.60;99.90;;;;;;5004988;28;20479;-77
2023/04/25 04:44:06;;;;;;;15.82;3.22;;;5.50;99.90;;;;;;5006383;28;20443;-77
2023/04/25 04:46:37;;;;;;;12.35;3.00;;;5.60;99.90;;;;;;5007807;28;20447;-77
2023/04/25 04:49:04;;;;;;;14.73;3.85;;;5.80;99.90;;;;;;5007649;28;20452;-78
2023/04/25 04:51:31;;;;;;;10.85;3.10;;;6.10;99.90;;;;;;5009166;28;20432;-78
2023/04/25 04:53:58;;;;;;;13.82;3.00;;;6.30;99.90;;;;;;5020197;28;20949;-79
2023/04/25 04:56:25;;;;;;;13.40;3.70;;;6.40;99.90;;;;;;5019724;28;20412;-76
2023/04/25 04:58:52;;;;;;;16.70;3.80;;;6.30;99.90;;;;;;5008839;28;20498;-77
2023/04/25 05:01:18;;;;;;;12.27;2.65;;;6.30;99.90;;;;;;5017528;28;21108;-76
2023/04/25 05:03:43;;;;;;;12.67;2.87;;;6.20;99.90;;;;;;5001236;28;20487;-77
2023/04/25 05:06:09;;;;;;;11.67;2.50;;;6.30;99.90;;;;;;5007702;28;20404;-77
2023/04/25 05:08:36;;;;;;;15.15;3.83;;;6.20;99.90;;;;;;5010782;28;20435;-77
2023/04/25 05:11:01;;;;;;;16.38;3.97;;;6.10;99.90;;;;;;4993326;28;20428;-76
2023/04/25 05:13:27;;;;;;;10.90;2.53;;;6.00;99.90;;;;;;5007638;28;20428;-77
2023/04/25 05:15:53;;;;;;;13.40;3.50;;;6.00;99.90;;;;;;5005812;28;20896;-77
2023/04/25 05:18:18;;;;;;;17.07;3.77;;;5.90;99.90;;;;;;5005537;28;20829;-77
2023/04/25 05:20:44;;;;;;;10.60;2.20;;;6.00;99.90;;;;;;5004315;28;20484;-77
2023/04/25 05:23:10;;;;;;;10.50;2.53;;;6.00;99.90;;;;;;5006835;28;20421;-77
2023/04/25 05:25:35;;;;;;;10.30;2.87;;;6.00;99.90;;;;;;5020804;28;20407;-77
2023/04/25 05:28:01;;;;;;;10.53;2.60;;;6.20;99.90;;;;;;5009036;28;20412;-76
2023/04/25 05:30:27;;;;;;;11.57;2.50;;;6.20;99.90;;;;;;5006916;28;20436;-78
2023/04/25 05:32:52;;;;;;;10.27;2.40;;;6.40;99.90;;;;;;5009153;28;20436;-77
2023/04/25 05:35:18;;;;;;;12.70;2.87;;;6.50;99.90;;;;;;5008292;28;20455;-77
2023/04/25 05:37:44;;;;;;;10.93;2.13;;;6.50;99.90;;;;;;5005673;28;20838;-77
2023/04/25 05:40:10;;;;;;;10.07;2.60;;;6.40;99.90;;;;;;5005974;28;20482;-77
2023/04/25 05:42:36;;;;;;;12.55;2.75;;;6.40;99.90;;;;;;5007642;28;20908;-77
2023/04/25 05:45:02;;;;;;;10.60;2.10;;;6.40;99.90;;;;;;5006901;28;20413;-77
2023/04/25 05:47:27;;;;;;;10.18;1.95;;;6.60;99.90;;;;;;5006896;28;20539;-77
2023/04/25 05:49:53;;;;;;;8.38;2.50;;;6.60;99.90;;;;;;5006005;28;20805;-77
2023/04/25 05:52:19;;;;;;;7.65;2.38;;;6.90;99.90;;;;;;5006317;28;20481;-77
2023/04/25 05:54:44;;;;;;;10.05;2.83;;;7.00;99.90;;;;;;5006157;28;20503;-78
2023/04/25 05:57:25;;;;;;;10.23;2.40;;;7.00;99.90;;;;;;5006383;28;20563;-77
2023/04/25 05:59:52;;;;;;;14.85;3.65;;;7.10;99.90;;;;;;5020885;28;20431;-77
2023/04/25 06:02:20;;;;;;;9.18;2.08;;;7.30;99.90;;;;;;5003522;28;20459;-78
2023/04/25 06:04:46;;;;;;;8.52;2.10;;;7.10;99.90;;;;;;5006548;28;21179;-78
2023/04/25 06:07:12;;;;;;;11.73;2.65;;;6.90;99.90;;;;;;5004273;28;20789;-77
2023/04/25 06:09:41;;;;;;;10.45;2.58;;;6.70;99.90;;;;;;5005140;28;20495;-77
2023/04/25 06:12:07;;;;;;;10.75;2.40;;;6.70;99.90;;;;;;5005277;28;20428;-77
2023/04/25 06:14:33;;;;;;;10.77;2.20;;;6.50;99.90;;;;;;5006752;28;20471;-78
2023/04/25 06:16:59;;;;;;;6.68;1.67;;;6.70;99.90;;;;;;5004590;28;20483;-78
2023/04/25 06:19:25;;;;;;;6.28;1.55;;;6.80;99.90;;;;;;5005099;28;20421;-79
2023/04/25 06:21:50;;;;;;;6.20;1.57;;;6.60;99.90;;;;;;5009801;28;20461;-78
2023/04/25 06:24:16;;;;;;;12.15;2.63;;;6.50;99.90;;;;;;5008411;28;20571;-78
2023/04/25 06:26:42;;;;;;;9.15;2.25;;;6.60;99.90;;;;;;5009109;28;20416;-78
2023/04/25 06:29:07;;;;;;;8.27;2.10;;;6.70;99.90;;;;;;5006893;28;20436;-78
2023/04/25 06:31:33;;;;;;;9.93;2.10;;;6.70;99.90;;;;;;5011018;28;20435;-79
2023/04/25 06:33:59;;;;;;;6.47;1.60;;;6.90;99.90;;;;;;5013613;28;20736;-79
2023/04/25 06:36:25;;;;;;;9.20;2.72;;;7.20;99.90;;;;;;5009612;28;20417;-77
2023/04/25 06:38:52;;;;;;;8.27;1.60;;;7.10;99.90;;;;;;5009440;28;20901;-78
2023/04/25 06:41:18;;;;;;;8.43;2.07;;;7.00;99.90;;;;;;5008407;28;20416;-76
2023/04/25 06:43:44;;;;;;;7.65;2.58;;;7.00;99.90;;;;;;5008968;28;20446;-78
2023/04/25 06:46:10;;;;;;;9.57;1.88;;;7.10;99.90;;;;;;5008316;28;20425;-79
2023/04/25 06:48:36;;;;;;;8.25;2.22;;;7.20;99.90;;;;;;5007242;28;20796;-77
2023/04/25 06:51:02;;;;;;;9.48;1.52;;;7.60;99.90;;;;;;4990708;28;20483;-77
2023/04/25 06:53:28;;;;;;;10.43;2.30;;;7.50;99.90;;;;;;5011283;28;20451;-77
2023/04/25 06:55:54;;;;;;;12.27;2.40;;;7.40;99.90;;;;;;5006921;28;20437;-77
2023/04/25 06:58:19;;;;;;;9.30;2.43;;;7.50;99.90;;;;;;5009748;28;21054;-78
2023/04/25 07:00:45;;;;;;;9.57;1.90;;;8.10;99.90;;;;;;5009671;28;20494;-78
2023/04/25 07:03:11;;;;;;;11.27;2.90;;;8.90;99.90;;;;;;5009103;28;20425;-77
2023/04/25 07:05:37;;;;;;;11.53;1.90;;;9.00;99.90;;;;;;5013120;28;20424;-79
2023/04/25 07:08:03;;;;;;;8.93;2.43;;;8.30;99.90;;;;;;5008804;28;20787;-78
2023/04/25 07:10:29;;;;;;;6.60;1.47;;;7.70;99.90;;;;;;4994194;28;20419;-79
2023/04/25 07:12:54;;;;;;;8.40;2.00;;;7.50;99.90;;;;;;5012276;28;20432;-78
2023/04/25 07:15:20;;;;;;;12.52;2.28;;;7.30;99.90;;;;;;5029523;28;20447;-77
2023/04/25 07:17:45;;;;;;;10.63;1.93;;;7.30;99.90;;;;;;5008497;28;20516;-77
2023/04/25 07:20:11;;;;;;;8.13;2.03;;;7.00;99.90;;;;;;5007854;28;20460;-77
2023/04/25 07:22:37;;;;;;;7.67;1.80;;;6.90;99.90;;;;;;5014350;28;21205;-78
2023/04/25 07:25:04;;;;;;;5.77;1.70;;;7.00;99.90;;;;;;5003350;28;20431;-78
2023/04/25 07:27:30;;;;;;;5.60;1.87;;;7.10;99.90;;;;;;4993068;28;20526;-77
2023/04/25 07:29:56;;;;;;;6.55;1.27;;;7.40;99.90;;;;;;5010908;28;20412;-77
2023/04/25 07:32:22;;;;;;;5.63;1.98;;;7.60;99.90;;;;;;5008945;28;20440;-78
2023/04/25 07:34:48;;;;;;;5.90;1.33;;;7.60;99.90;;;;;;5003507;28;20415;-79
2023/04/25 07:37:14;;;;;;;4.90;1.08;;;7.60;99.90;;;;;;5025493;28;20415;-77
2023/04/25 07:39:40;;;;;;;6.25;1.30;;;7.50;99.90;;;;;;5013867;28;20448;-79
2023/04/25 07:42:07;;;;;;;7.68;2.00;;;7.40;99.90;;;;;;5021878;28;20425;-77
2023/04/25 07:44:40;;;;;;;6.55;1.58;;;7.60;99.90;;;;;;4993322;28;20430;-78
2023/04/25 07:47:09;;;;;;;4.03;1.00;;;7.70;99.90;;;;;;5005753;28;20429;-76
2023/04/25 07:49:36;;;;;;;6.75;1.38;;;7.60;99.90;;;;;;5012020;28;20423;-78
2023/04/25 07:52:05;;;;;;;6.68;2.22;;;7.80;99.90;;;;;;5007108;28;20444;-77
2023/04/25 07:54:30;;;;;;;8.50;1.48;;;8.10;99.90;;;;;;5013774;28;20433;-76
2023/04/25 07:56:56;;;;;;;8.67;1.80;;;8.40;99.90;;;;;;5006701;28;20440;-79
2023/04/25 07:59:22;;;;;;;14.83;2.67;;;8.40;99.90;;;;;;5009793;28;20453;-77
2023/04/25 08:01:48;;;;;;;8.32;1.92;;;8.50;99.90;;;;;;5011878;28;20464;-79
2023/04/25 08:04:14;;;;;;;13.80;2.20;;;8.50;99.90;;;;;;5008494;28;20428;-77
2023/04/25 08:06:40;;;;;;;10.40;2.42;;;8.80;99.90;;;;;;5015593;28;20417;-76
2023/04/25 08:09:07;;;;;;;8.27;1.83;;;8.90;99.90;;;;;;5005871;28;21495;-76
2023/04/25 08:11:33;;;;;;;9.90;2.05;;;9.20;99.90;;;;;;4997148;28;20426;-77
2023/04/25 08:13:58;;;;;;;7.65;2.10;;;9.30;99.90;;;;;;5008815;28;20935;-77
2023/04/25 08:16:24;;;;;;;9.87;2.03;;;8.80;99.90;;;;;;4989794;28;20418;-78
2023/04/25 08:18:50;;;;;;;10.60;2.15;;;9.00;99.90;;;;;;5002030;28;20456;-79
2023/04/25 08:21:16;;;;;;;8.15;1.70;;;9.10;99.90;;;;;;5002888;28;20843;-78
2023/04/25 08:23:41;;;;;;;9.32;1.73;;;8.80;99.90;;;;;;5005916;28;20925;-77
2023/04/25 08:26:07;;;;;;;8.83;1.63;;;8.80;99.90;;;;;;5009503;28;20430;-77
2023/04/25 08:28:33;;;;;;;8.60;1.40;;;8.50;99.90;;;;;;5007553;28;20436;-78
2023/04/25 08:30:59;;;;;;;5.75;1.27;;;8.20;99.90;;;;;;5003192;28;20421;-78
2023/04/25 08:33:25;;;;;;;6.80;1.48;;;8.00;99.90;;;;;;5009026;28;20440;-78
2023/04/25 08:35:51;;;;;;;6.22;1.25;;;8.00;99.90;;;;;;5005640;28;20764;-77
2023/04/25 08:38:17;;;;;;;7.15;1.70;;;7.90;99.90;;;;;;4998631;28;20514;-78
2023/04/25 08:40:43;;;;;;;6.30;1.60;;;8.10;99.90;;;;;;5003514;28;20562;-77
2023/04/25 08:43:13;;;;;;;5.40;1.23;;;8.10;99.90;;;;;;5008801;28;20928;-76
2023/04/25 08:45:42;;;;;;;4.87;0.90;;;7.80;99.90;;;;;;5008111;28;20458;-78
2023/04/25 08:48:16;;;;;;;7.72;1.70;;;8.00;99.90;;;;;;5007405;28;20431;-78
2023/04/25 08:50:51;;;;;;;9.82;3.08;;;8.30;99.90;;;;;;5013054;28;20451;-76
2023/04/25 08:53:21;;;;;;;7.30;1.70;;;8.60;99.90;;;;;;4995018;28;20426;-77
2023/04/25 08:55:49;;;;;;;7.63;1.60;;;8.90;99.90;;;;;;5004780;28;20424;-78
2023/04/25 08:58:16;;;;;;;7.78;1.70;;;8.90;99.90;;;;;;4988840;28;20415;-78
2023/04/25 09:00:42;;;;;;;6.70;1.65;;;9.40;99.90;;;;;;5007483;28;20970;-77
2023/04/25 09:03:08;;;;;;;10.15;2.00;;;9.80;99.90;;;;;;5007200;28;20460;-78
2023/04/25 09:05:34;;;;;;;8.15;1.80;;;9.50;99.90;;;;;;5023914;28;20437;-77
2023/04/25 09:08:00;;;;;;;6.57;1.70;;;9.40;99.90;;;;;;5007943;28;20952;-78
2023/04/25 09:10:27;;;;;;;6.18;1.63;;;8.50;99.90;;;;;;5011747;28;20423;-76
2023/04/25 09:13:24;;;;;;;7.97;2.40;;;8.10;99.90;;;;;;5006590;28;20493;-75
2023/04/25 09:15:52;;;;;;;8.50;2.20;;;8.10;99.90;;;;;;5014714;28;20442;-76
2023/04/25 09:18:28;;;;;;;10.23;2.30;;;8.00;99.90;;;;;;5012143;28;20424;-76
2023/04/25 09:20:56;;;;;;;8.45;2.50;;;7.90;99.90;;;;;;5007745;28;20425;-75
2023/04/25 09:23:23;;;;;;;9.13;1.55;;;7.90;99.90;;;;;;5007922;28;21002;-75
2023/04/25 09:25:50;;;;;;;7.78;2.25;;;8.10;99.90;;;;;;4998312;28;20460;-76
2023/04/25 09:28:16;;;;;;;13.27;2.70;;;8.50;99.90;;;;;;5007311;28;20407;-76
2023/04/25 09:30:42;;;;;;;10.10;2.23;;;8.70;99.90;;;;;;5007295;28;20507;-77
2023/04/25 09:33:10;;;;;;;10.77;2.00;;;8.90;99.90;;;;;;4998077;28;20432;-77
2023/04/25 09:35:40;;;;;;;8.02;1.90;;;9.00;99.90;;;;;;4990325;28;20432;-75
2023/04/25 09:38:13;;;;;;;10.18;2.33;;;9.20;99.90;;;;;;5006942;28;20773;-76
2023/04/25 09:40:44;;;;;;;8.27;2.53;;;9.30;99.90;;;;;;5012417;28;20432;-75
2023/04/25 09:43:18;;;;;;;12.82;2.45;;;9.60;99.90;;;;;;5006145;28;20528;-75
2023/04/25 09:45:45;;;;;;;9.15;2.53;;;9.50;99.90;;;;;;4999562;28;20897;-76
2023/04/25 09:48:12;;;;;;;5.70;1.13;;;9.30;99.90;;;;;;5004570;28;20804;-76
2023/04/25 09:50:39;;;;;;;7.70;1.98;;;9.80;99.90;;;;;;5016663;28;20434;-75
2023/04/25 09:53:05;;;;;;;5.93;1.73;;;9.70;99.90;;;;;;5005559;28;20467;-76
2023/04/25 09:55:35;;;;;;;5.38;1.33;;;9.30;99.90;;;;;;5012012;28;20824;-75
2023/04/25 09:58:07;;;;;;;6.70;1.75;;;9.10;99.90;;;;;;5010633;28;20517;-75
2023/04/25 10:00:35;;;;;;;10.93;1.85;;;9.20;99.90;;;;;;5010976;28;20932;-77
2023/04/25 10:03:05;;;;;;;11.27;1.52;;;9.60;99.90;;;;;;5010361;28;20470;-75
2023/04/25 10:05:35;;;;;;;7.53;1.40;;;9.80;99.90;;;;;;5030846;28;20418;-76
2023/04/25 10:08:06;;;;;;;7.03;1.40;;;10.20;99.90;;;;;;5008586;28;20432;-76
2023/04/25 10:10:35;;;;;;;6.57;1.40;;;10.50;99.90;;;;;;4995773;28;20430;-77
2023/04/25 10:13:06;;;;;;;10.05;1.80;;;10.10;99.90;;;;;;5022044;28;20426;-76
2023/04/25 10:15:36;;;;;;;9.05;2.38;;;10.20;99.90;;;;;;5028818;28;20498;-77
2023/04/25 10:18:02;;;;;;;11.25;2.13;;;9.70;99.90;;;;;;5008728;28;20942;-76
2023/04/25 10:20:29;;;;;;;12.50;2.58;;;9.60;99.90;;;;;;5021758;28;20437;-76
2023/04/25 10:23:08;;;;;;;9.65;1.98;;;9.50;99.90;;;;;;5011730;28;20432;-76
2023/04/25 10:25:34;;;;;;;6.60;1.40;;;9.70;99.90;;;;;;5011618;28;20405;-79
2023/04/25 10:28:02;;;;;;;9.85;2.30;;;10.00;99.90;;;;;;5010396;28;20432;-81
2023/04/25 10:30:27;;;;;;;8.57;1.92;;;10.00;99.90;;;;;;5012793;28;20429;-79
2023/04/25 10:32:55;;;;;;;6.63;1.37;;;9.90;99.90;;;;;;5010568;28;20445;-78
2023/04/25 10:35:26;;;;;;;5.32;1.00;;;9.10;99.90;;;;;;5024276;28;20428;-80
2023/04/25 10:38:08;;;;;;;4.80;1.35;;;8.30;99.90;;;;;;5003250;28;20445;-81
2023/04/25 10:40:34;;;;;;;6.30;1.92;;;7.80;99.90;;;;;;5006293;28;20425;-80
2023/04/25 10:43:31;;;;;;;6.60;1.70;;;7.20;99.90;;;;;;5006303;28;20479;-81
2023/04/25 10:45:57;;;;;;;6.13;1.80;;;7.10;99.90;;;;;;5011110;28;20436;-79
2023/04/25 10:48:26;;;;;;;7.18;1.90;;;7.10;99.90;;;;;;5007826;28;20429;-78
2023/04/25 10:51:12;;;;;;;10.18;2.70;;;7.60;99.90;;;;;;5005350;28;20441;-77
2023/04/25 10:53:38;;;;;;;8.82;1.70;;;7.50;99.90;;;;;;5002450;28;20531;-78
2023/04/25 10:56:11;;;;;;;10.60;1.70;;;7.70;99.90;;;;;;5004544;28;20432;-79
2023/04/25 10:58:42;;;;;;;11.32;2.10;;;8.00;99.90;;;;;;4999158;28;20434;-78
2023/04/25 11:01:08;;;;;;;15.82;3.15;;;8.10;99.90;;;;;;5005647;28;20506;-77
2023/04/25 11:03:40;;;;;;;11.95;2.15;;;8.40;99.90;;;;;;5009690;28;20882;-76
2023/04/25 11:06:16;;;;;;;11.60;2.47;;;8.40;99.90;;;;;;5009467;28;20889;-77
2023/04/25 11:08:49;;;;;;;8.80;1.80;;;8.50;99.90;;;;;;5012091;28;20432;-80
2023/04/25 11:11:17;;;;;;;9.30;2.00;;;8.30;99.90;;;;;;5016737;28;20479;-78
2023/04/25 11:13:43;;;;;;;6.97;1.30;;;8.40;99.90;;;;;;5026214;28;20439;-81
2023/04/25 11:16:09;;;;;;;12.98;2.47;;;8.40;99.90;;;;;;5014046;28;20413;-76
2023/04/25 11:18:35;;;;;;;7.75;1.98;;;8.60;99.90;;;;;;5024692;28;20423;-79
2023/04/25 11:21:02;;;;;;;7.72;1.92;;;9.30;99.90;;;;;;5008936;28;20427;-77
2023/04/25 11:23:29;;;;;;;8.10;1.63;;;9.40;99.90;;;;;;4994703;28;20437;-81
2023/04/25 11:25:55;;;;;;;9.73;2.53;;;8.60;99.90;;;;;;5006732;28;20467;-86
2023/04/25 11:28:23;;;;;;;7.28;1.40;;;8.30;99.90;;;;;;5011044;28;20464;-87
2023/04/25 11:30:52;;;;;;;9.82;2.50;;;7.90;99.90;;;;;;5004565;28;20438;-87
2023/04/25 11:33:17;;;;;;;10.40;2.15;;;8.30;99.90;;;;;;4995713;28;20453;-86
2023/04/25 11:35:43;;;;;;;8.40;1.77;;;8.80;99.90;;;;;;4991476;28;20406;-86
2023/04/25 11:38:09;;;;;;;8.13;1.70;;;9.30;99.90;;;;;;5015619;28;20429;-87
2023/04/25 11:40:36;;;;;;;6.03;1.77;;;9.80;99.90;;;;;;5000711;28;20501;-87
2023/04/25 11:43:02;;;;;;;10.88;3.03;;;9.80;99.90;;;;;;5024999;28;20430;-80
2023/04/25 11:45:30;;;;;;;10.18;2.25;;;9.00;99.90;;;;;;5029079;28;20440;-78
2023/04/25 11:47:56;;;;;;;10.40;1.48;;;8.60;99.90;;;;;;5015864;28;20486;-87
2023/04/25 11:50:21;;;;;;;4.18;1.00;;;7.30;99.90;;;;;;5027977;28;20432;-79
2023/04/25 11:52:48;;;;;;;4.10;1.13;;;7.00;99.90;;;;;;5029254;28;21132;-80
2023/04/25 11:55:15;;;;;;;3.75;1.45;;;7.00;99.90;;;;;;5016103;28;20522;-84
2023/04/25 11:57:42;;;;;;;6.60;1.30;;;7.60;99.90;;;;;;5019977;28;20437;-85
2023/04/25 12:00:11;;;;;;;4.82;1.30;;;7.70;99.90;;;;;;5022328;28;20967;-79
2023/04/25 12:02:37;;;;;;;5.22;1.20;;;7.70;99.90;;;;;;5014847;28;20418;-85
2023/04/25 12:05:08;;;;;;;5.20;1.58;;;7.90;99.90;;;;;;5023406;28;20471;-82
2023/04/25 12:07:34;;;;;;;7.25;2.00;;;8.10;99.90;;;;;;5008897;28;20754;-81
2023/04/25 12:10:03;;;;;;;11.13;2.25;;;8.20;99.90;;;;;;4997187;28;20726;-76
2023/04/25 12:12:33;;;;;;;7.13;2.75;;;8.40;99.90;;;;;;5010691;28;20506;-82
2023/04/25 12:15:09;;;;;;;4.55;1.02;;;8.80;99.90;;;;;;5008012;28;20412;-79
2023/04/25 12:17:37;;;;;;;7.25;1.67;;;8.80;99.90;;;;;;5005806;28;20951;-82
2023/04/25 12:20:11;;;;;;;7.20;1.92;;;8.80;99.90;;;;;;5006846;28;20408;-82
2023/04/25 12:22:37;;;;;;;4.32;1.05;;;8.50;99.90;;;;;;5017670;28;20419;-80
2023/04/25 12:25:04;;;;;;;8.18;1.58;;;8.50;99.90;;;;;;5016606;28;20796;-80
2023/04/25 12:27:32;;;;;;;7.15;1.98;;;8.60;99.90;;;;;;4993845;28;20442;-82
2023/04/25 12:29:58;;;;;;;11.43;3.22;;;9.00;99.90;;;;;;5011094;28;20506;-79
2023/04/25 12:32:24;;;;;;;12.73;3.00;;;9.30;99.90;;;;;;5027920;28;20488;-81
2023/04/25 12:34:50;;;;;;;8.80;1.75;;;9.30;99.90;;;;;;5042878;28;20907;-81
2023/04/25 12:37:16;;;;;;;11.17;2.20;;;9.70;99.90;;;;;;5005366;28;20566;-76
2023/04/25 12:39:42;;;;;;;11.50;2.38;;;9.30;99.90;;;;;;4998188;28;20478;-80
2023/04/25 12:42:07;;;;;;;10.63;2.13;;;9.30;99.90;;;;;;5007070;28;20427;-79
2023/04/25 12:44:33;;;;;;;7.25;1.70;;;9.40;99.90;;;;;;5007992;28;20488;-81
2023/04/25 12:46:59;;;;;;;6.77;1.53;;;9.50;99.90;;;;;;4998682;28;20515;-83
2023/04/25 12:49:25;;;;;;;6.47;1.48;;;9.80;99.90;;;;;;5000222;28;20446;-82